< < Back
Terminal Aerodrome Forecast


Current Version              Previous Versions:   1  2  3  4  5  6  7  8  9  

Terminal Aerodrome Forecast

115
FTUS44 KBMX 230500
TAFANB
TAF
KANB 230520Z 2306/2406 00000KT P6SM SKC
     FM231400 32006KT P6SM SCT050=

Latest METAR

590
SAUS70 KWBC 230900 RRI
MTRANB
METAR KANB 230853Z AUTO 00000KT 10SM CLR 23/22 A3001 RMK AO2 SLP151
T02280217 56006


USA.gov is the U.S. government's official web portal to all federal, state and local government web resources and services.